sensor_id;sensor_type;location;lat;lon;timestamp;pressure;altitude;pressure_sealevel;temperature;humidity
65175;BME280;51761;42.126;24.752;2022-11-11T00:02:19;100744.31;;;9.48;83.45
65175;BME280;51761;42.126;24.752;2022-11-11T00:04:45;100744.78;;;9.57;82.86
65175;BME280;51761;42.126;24.752;2022-11-11T00:07:10;100734.81;;;9.56;82.67
65175;BME280;51761;42.126;24.752;2022-11-11T00:09:36;100735.59;;;9.53;82.89
65175;BME280;51761;42.126;24.752;2022-11-11T00:12:02;100700.75;;;9.23;82.86
65175;BME280;51761;42.126;24.752;2022-11-11T00:14:28;100747.94;;;9.52;82.95
65175;BME280;51761;42.126;24.752;2022-11-11T00:16:53;100742.34;;;9.52;82.89
65175;BME280;51761;42.126;24.752;2022-11-11T00:19:37;100735.50;;;9.42;82.95
65175;BME280;51761;42.126;24.752;2022-11-11T00:22:26;100745.97;;;9.52;82.71
65175;BME280;51761;42.126;24.752;2022-11-11T00:25:15;100699.16;;;9.25;82.61
65175;BME280;51761;42.126;24.752;2022-11-11T00:27:41;100703.97;;;9.28;82.63
65175;BME280;51761;42.126;24.752;2022-11-11T00:30:07;100726.38;;;9.42;82.53
65175;BME280;51761;42.126;24.752;2022-11-11T00:32:32;100742.75;;;9.50;82.55
65175;BME280;51761;42.126;24.752;2022-11-11T00:34:59;100738.38;;;9.53;82.26
65175;BME280;51761;42.126;24.752;2022-11-11T00:37:45;100651.59;;;8.94;81.89
65175;BME280;51761;42.126;24.752;2022-11-11T00:40:13;100703.53;;;9.26;82.20
65175;BME280;51761;42.126;24.752;2022-11-11T00:42:40;100747.50;;;9.43;82.15
65175;BME280;51761;42.126;24.752;2022-11-11T00:45:06;100746.34;;;9.51;82.01
65175;BME280;51761;42.126;24.752;2022-11-11T00:47:32;100741.13;;;9.46;82.34
65175;BME280;51761;42.126;24.752;2022-11-11T00:50:21;100745.09;;;9.45;82.21
65175;BME280;51761;42.126;24.752;2022-11-11T00:53:20;100746.28;;;9.44;81.85
65175;BME280;51761;42.126;24.752;2022-11-11T00:55:46;100707.06;;;9.20;81.84
65175;BME280;51761;42.126;24.752;2022-11-11T00:58:11;100733.50;;;9.36;81.78
65175;BME280;51761;42.126;24.752;2022-11-11T01:00:36;100729.09;;;9.35;82.39
65175;BME280;51761;42.126;24.752;2022-11-11T01:03:03;100724.31;;;9.36;82.47
65175;BME280;51761;42.126;24.752;2022-11-11T01:05:28;100719.56;;;9.36;82.28
65175;BME280;51761;42.126;24.752;2022-11-11T01:07:54;100691.94;;;9.17;81.95
65175;BME280;51761;42.126;24.752;2022-11-11T01:10:21;100730.75;;;9.43;81.87
65175;BME280;51761;42.126;24.752;2022-11-11T01:13:22;100692.72;;;9.14;81.91
65175;BME280;51761;42.126;24.752;2022-11-11T01:15:56;100712.34;;;9.32;82.11
65175;BME280;51761;42.126;24.752;2022-11-11T01:18:24;100668.75;;;9.06;82.70
65175;BME280;51761;42.126;24.752;2022-11-11T01:21:01;100705.94;;;9.24;82.32
65175;BME280;51761;42.126;24.752;2022-11-11T01:23:28;100717.09;;;9.28;82.29
65175;BME280;51761;42.126;24.752;2022-11-11T01:25:54;100713.47;;;9.20;82.84
65175;BME280;51761;42.126;24.752;2022-11-11T01:28:19;100696.63;;;9.06;83.00
65175;BME280;51761;42.126;24.752;2022-11-11T01:30:45;100712.66;;;9.16;82.85
65175;BME280;51761;42.126;24.752;2022-11-11T01:33:11;100711.47;;;9.17;82.99
65175;BME280;51761;42.126;24.752;2022-11-11T01:35:38;100724.25;;;9.22;82.93
65175;BME280;51761;42.126;24.752;2022-11-11T01:38:04;100680.63;;;8.96;83.06
65175;BME280;51761;42.126;24.752;2022-11-11T01:40:29;100674.25;;;8.92;83.10
65175;BME280;51761;42.126;24.752;2022-11-11T01:45:48;100665.53;;;8.97;83.23
65175;BME280;51761;42.126;24.752;2022-11-11T01:48:36;100696.69;;;9.13;83.13
65175;BME280;51761;42.126;24.752;2022-11-11T01:51:26;100708.59;;;9.07;83.54
65175;BME280;51761;42.126;24.752;2022-11-11T01:53:58;100692.19;;;8.98;83.22
65175;BME280;51761;42.126;24.752;2022-11-11T01:56:25;100671.09;;;8.97;83.24
65175;BME280;51761;42.126;24.752;2022-11-11T01:58:54;100684.19;;;8.93;83.42
65175;BME280;51761;42.126;24.752;2022-11-11T02:01:21;100668.09;;;8.69;83.87
65175;BME280;51761;42.126;24.752;2022-11-11T02:03:48;100698.09;;;8.90;83.84
65175;BME280;51761;42.126;24.752;2022-11-11T02:06:35;100706.94;;;8.99;84.13
65175;BME280;51761;42.126;24.752;2022-11-11T02:09:03;100701.69;;;8.90;83.92
65175;BME280;51761;42.126;24.752;2022-11-11T02:11:30;100706.50;;;8.93;83.90
65175;BME280;51761;42.126;24.752;2022-11-11T02:14:16;100698.50;;;8.88;84.49
65175;BME280;51761;42.126;24.752;2022-11-11T02:17:06;100699.31;;;8.92;84.88
65175;BME280;51761;42.126;24.752;2022-11-11T02:19:43;100702.53;;;8.94;84.84
65175;BME280;51761;42.126;24.752;2022-11-11T02:22:21;100675.19;;;8.63;85.30
65175;BME280;51761;42.126;24.752;2022-11-11T02:24:48;100673.50;;;8.52;85.78
65175;BME280;51761;42.126;24.752;2022-11-11T02:27:16;100688.00;;;8.71;85.99
65175;BME280;51761;42.126;24.752;2022-11-11T02:29:45;100702.69;;;8.68;85.92
65175;BME280;51761;42.126;24.752;2022-11-11T02:32:11;100719.47;;;8.75;86.29
65175;BME280;51761;42.126;24.752;2022-11-11T02:34:37;100724.66;;;8.77;86.26
65175;BME280;51761;42.126;24.752;2022-11-11T02:37:05;100720.94;;;8.62;86.17
65175;BME280;51761;42.126;24.752;2022-11-11T02:39:34;100713.13;;;8.78;85.78
65175;BME280;51761;42.126;24.752;2022-11-11T02:42:02;100723.00;;;8.72;86.04
65175;BME280;51761;42.126;24.752;2022-11-11T02:44:35;100724.56;;;8.66;86.30
65175;BME280;51761;42.126;24.752;2022-11-11T02:47:03;100727.81;;;8.75;85.95
65175;BME280;51761;42.126;24.752;2022-11-11T02:49:28;100685.09;;;8.57;85.54
65175;BME280;51761;42.126;24.752;2022-11-11T02:51:54;100712.28;;;8.74;85.20
65175;BME280;51761;42.126;24.752;2022-11-11T02:54:20;100686.28;;;8.56;85.47
65175;BME280;51761;42.126;24.752;2022-11-11T02:56:45;100712.66;;;8.69;85.69
65175;BME280;51761;42.126;24.752;2022-11-11T02:59:29;100693.88;;;8.59;85.70
65175;BME280;51761;42.126;24.752;2022-11-11T03:01:54;100709.31;;;8.53;86.20
65175;BME280;51761;42.126;24.752;2022-11-11T03:04:20;100740.13;;;8.71;86.27
65175;BME280;51761;42.126;24.752;2022-11-11T03:06:45;100731.38;;;8.72;86.18
65175;BME280;51761;42.126;24.752;2022-11-11T03:09:11;100727.38;;;8.70;86.25
65175;BME280;51761;42.126;24.752;2022-11-11T03:11:36;100732.56;;;8.71;85.88
65175;BME280;51761;42.126;24.752;2022-11-11T03:14:03;100739.72;;;8.69;86.26
65175;BME280;51761;42.126;24.752;2022-11-11T03:16:29;100738.53;;;8.73;86.10
65175;BME280;51761;42.126;24.752;2022-11-11T03:19:13;100740.97;;;8.78;85.74
65175;BME280;51761;42.126;24.752;2022-11-11T03:21:39;100729.59;;;8.54;85.93
65175;BME280;51761;42.126;24.752;2022-11-11T03:24:05;100745.78;;;8.41;86.59
65175;BME280;51761;42.126;24.752;2022-11-11T03:26:31;100736.53;;;8.30;84.39
65175;BME280;51761;42.126;24.752;2022-11-11T03:28:57;100736.00;;;8.21;82.78
65175;BME280;51761;42.126;24.752;2022-11-11T03:31:22;100731.34;;;7.99;83.50
65175;BME280;51761;42.126;24.752;2022-11-11T03:33:48;100698.53;;;7.50;84.39
65175;BME280;51761;42.126;24.752;2022-11-11T03:36:13;100731.81;;;7.46;85.79
65175;BME280;51761;42.126;24.752;2022-11-11T03:38:39;100732.22;;;7.48;85.54
65175;BME280;51761;42.126;24.752;2022-11-11T03:41:05;100733.25;;;7.37;85.86
65175;BME280;51761;42.126;24.752;2022-11-11T03:43:33;100734.00;;;7.34;86.33
65175;BME280;51761;42.126;24.752;2022-11-11T03:46:02;100692.91;;;6.94;86.94
65175;BME280;51761;42.126;24.752;2022-11-11T03:48:32;100702.56;;;7.00;87.30
65175;BME280;51761;42.126;24.752;2022-11-11T03:50:58;100701.06;;;7.06;87.37
65175;BME280;51761;42.126;24.752;2022-11-11T03:53:24;100716.97;;;7.09;87.49
65175;BME280;51761;42.126;24.752;2022-11-11T03:55:50;100725.38;;;7.13;87.20
65175;BME280;51761;42.126;24.752;2022-11-11T03:58:17;100719.75;;;7.09;86.56
65175;BME280;51761;42.126;24.752;2022-11-11T04:00:43;100730.19;;;6.93;87.34
65175;BME280;51761;42.126;24.752;2022-11-11T04:03:17;100693.06;;;6.79;87.02
65175;BME280;51761;42.126;24.752;2022-11-11T04:06:02;100725.56;;;7.01;86.60
65175;BME280;51761;42.126;24.752;2022-11-11T04:08:46;100706.94;;;6.79;86.83
65175;BME280;51761;42.126;24.752;2022-11-11T04:11:39;100723.59;;;7.01;86.40
65175;BME280;51761;42.126;24.752;2022-11-11T04:14:10;100716.69;;;6.92;86.70
65175;BME280;51761;42.126;24.752;2022-11-11T04:16:54;100722.44;;;7.02;86.11
65175;BME280;51761;42.126;24.752;2022-11-11T04:19:20;100731.75;;;6.91;86.25
65175;BME280;51761;42.126;24.752;2022-11-11T04:22:04;100739.13;;;7.06;86.13
65175;BME280;51761;42.126;24.752;2022-11-11T04:24:30;100732.78;;;7.05;86.04
65175;BME280;51761;42.126;24.752;2022-11-11T04:27:16;100709.28;;;6.77;86.21
65175;BME280;51761;42.126;24.752;2022-11-11T04:29:42;100714.34;;;6.94;86.35
65175;BME280;51761;42.126;24.752;2022-11-11T04:32:10;100746.94;;;6.97;86.26
65175;BME280;51761;42.126;24.752;2022-11-11T04:34:59;100753.94;;;7.13;86.10
65175;BME280;51761;42.126;24.752;2022-11-11T04:37:27;100740.78;;;7.10;86.02
65175;BME280;51761;42.126;24.752;2022-11-11T04:39:54;100721.28;;;6.81;85.93
65175;BME280;51761;42.126;24.752;2022-11-11T04:42:38;100751.56;;;6.89;86.18
65175;BME280;51761;42.126;24.752;2022-11-11T04:45:08;100758.03;;;6.97;86.31
65175;BME280;51761;42.126;24.752;2022-11-11T04:48:06;100724.78;;;6.78;86.35
65175;BME280;51761;42.126;24.752;2022-11-11T04:50:36;100751.09;;;6.84;86.92
65175;BME280;51761;42.126;24.752;2022-11-11T04:53:04;100756.13;;;7.01;87.23
65175;BME280;51761;42.126;24.752;2022-11-11T04:55:30;100756.94;;;7.01;86.92
65175;BME280;51761;42.126;24.752;2022-11-11T04:58:16;100719.78;;;6.87;86.78
65175;BME280;51761;42.126;24.752;2022-11-11T05:00:41;100716.06;;;7.02;87.56
65175;BME280;51761;42.126;24.752;2022-11-11T05:03:13;100719.38;;;7.11;87.28
65175;BME280;51761;42.126;24.752;2022-11-11T05:05:57;100754.03;;;7.43;85.69
65175;BME280;51761;42.126;24.752;2022-11-11T05:08:48;100755.19;;;7.16;85.87
65175;BME280;51761;42.126;24.752;2022-11-11T05:11:35;100751.66;;;7.19;85.83
65175;BME280;51761;42.126;24.752;2022-11-11T05:14:03;100677.53;;;6.74;84.57
65175;BME280;51761;42.126;24.752;2022-11-11T05:16:55;100769.44;;;7.14;84.96
65175;BME280;51761;42.126;24.752;2022-11-11T05:19:40;100766.97;;;7.09;85.04
65175;BME280;51761;42.126;24.752;2022-11-11T05:22:25;100767.19;;;6.97;85.03
65175;BME280;51761;42.126;24.752;2022-11-11T05:24:51;100765.06;;;6.91;85.60
65175;BME280;51761;42.126;24.752;2022-11-11T05:27:35;100736.38;;;6.83;84.85
65175;BME280;51761;42.126;24.752;2022-11-11T05:30:02;100775.25;;;7.06;84.60
65175;BME280;51761;42.126;24.752;2022-11-11T05:32:28;100779.69;;;7.10;84.48
65175;BME280;51761;42.126;24.752;2022-11-11T05:34:53;100781.22;;;7.08;84.84
65175;BME280;51761;42.126;24.752;2022-11-11T05:37:19;100739.72;;;7.18;84.20
65175;BME280;51761;42.126;24.752;2022-11-11T05:39:45;100763.97;;;7.73;83.05
65175;BME280;51761;42.126;24.752;2022-11-11T05:42:11;100768.88;;;8.42;80.47
65175;BME280;51761;42.126;24.752;2022-11-11T05:44:37;100783.72;;;8.96;77.63
65175;BME280;51761;42.126;24.752;2022-11-11T05:47:03;100734.53;;;9.14;75.68
65175;BME280;51761;42.126;24.752;2022-11-11T05:49:29;100763.06;;;9.51;74.82
65175;BME280;51761;42.126;24.752;2022-11-11T05:51:54;100760.78;;;9.70;74.50
65175;BME280;51761;42.126;24.752;2022-11-11T05:54:21;100762.53;;;9.99;73.88
65175;BME280;51761;42.126;24.752;2022-11-11T05:56:47;100772.81;;;10.77;71.87
65175;BME280;51761;42.126;24.752;2022-11-11T05:59:12;100780.84;;;11.59;68.63
65175;BME280;51761;42.126;24.752;2022-11-11T06:01:38;100786.28;;;12.25;66.27
65175;BME280;51761;42.126;24.752;2022-11-11T06:04:04;100728.13;;;12.43;64.39
65175;BME280;51761;42.126;24.752;2022-11-11T06:06:30;100782.41;;;13.35;62.55
65175;BME280;51761;42.126;24.752;2022-11-11T06:08:56;100777.47;;;13.90;60.64
65175;BME280;51761;42.126;24.752;2022-11-11T06:11:22;100782.84;;;14.11;58.92
65175;BME280;51761;42.126;24.752;2022-11-11T06:13:48;100777.03;;;14.58;58.03
65175;BME280;51761;42.126;24.752;2022-11-11T06:16:14;100764.25;;;14.83;58.10
65175;BME280;51761;42.126;24.752;2022-11-11T06:18:39;100777.72;;;14.95;58.13
65175;BME280;51761;42.126;24.752;2022-11-11T06:21:05;100751.91;;;15.00;56.46
65175;BME280;51761;42.126;24.752;2022-11-11T06:23:31;100788.03;;;15.78;55.22
65175;BME280;51761;42.126;24.752;2022-11-11T06:25:57;100788.75;;;16.24;53.51
65175;BME280;51761;42.126;24.752;2022-11-11T06:28:38;100776.59;;;16.66;51.99
65175;BME280;51761;42.126;24.752;2022-11-11T06:31:04;100801.16;;;17.20;50.35
65175;BME280;51761;42.126;24.752;2022-11-11T06:33:35;100795.81;;;17.42;49.55
65175;BME280;51761;42.126;24.752;2022-11-11T06:36:01;100805.88;;;17.58;49.24
65175;BME280;51761;42.126;24.752;2022-11-11T06:38:27;100789.34;;;17.57;49.24
65175;BME280;51761;42.126;24.752;2022-11-11T06:40:53;100799.84;;;17.88;48.66
65175;BME280;51761;42.126;24.752;2022-11-11T06:43:18;100743.06;;;17.67;47.96
65175;BME280;51761;42.126;24.752;2022-11-11T06:45:44;100812.97;;;18.39;47.61
65175;BME280;51761;42.126;24.752;2022-11-11T06:48:10;100770.59;;;18.23;47.62
65175;BME280;51761;42.126;24.752;2022-11-11T06:50:36;100817.81;;;18.67;46.97
65175;BME280;51761;42.126;24.752;2022-11-11T06:53:10;100807.78;;;18.91;47.04
65175;BME280;51761;42.126;24.752;2022-11-11T06:55:36;100803.66;;;19.21;46.24
65175;BME280;51761;42.126;24.752;2022-11-11T07:00:38;100778.34;;;19.01;46.62
65175;BME280;51761;42.126;24.752;2022-11-11T07:03:06;100793.44;;;19.23;46.48
65175;BME280;51761;42.126;24.752;2022-11-11T07:05:32;100806.34;;;19.36;46.73
65175;BME280;51761;42.126;24.752;2022-11-11T07:08:03;100799.06;;;19.60;59.62
65175;BME280;51761;42.126;24.752;2022-11-11T07:10:29;100795.00;;;20.08;57.00
65175;BME280;51761;42.126;24.752;2022-11-11T07:12:55;100778.00;;;20.51;47.76
65175;BME280;51761;42.126;24.752;2022-11-11T07:15:21;100795.81;;;20.94;45.67
65175;BME280;51761;42.126;24.752;2022-11-11T07:17:46;100796.41;;;21.19;45.23
65175;BME280;51761;42.126;24.752;2022-11-11T07:20:12;100784.78;;;21.35;47.45
65175;BME280;51761;42.126;24.752;2022-11-11T07:22:37;100773.00;;;21.55;47.16
65175;BME280;51761;42.126;24.752;2022-11-11T07:25:03;100798.78;;;21.60;44.40
65175;BME280;51761;42.126;24.752;2022-11-11T07:27:29;100791.25;;;21.36;51.17
65175;BME280;51761;42.126;24.752;2022-11-11T07:29:55;100758.41;;;20.95;45.06
65175;BME280;51761;42.126;24.752;2022-11-11T07:32:20;100777.53;;;21.34;47.28
65175;BME280;51761;42.126;24.752;2022-11-11T07:34:46;100786.81;;;21.74;44.77
65175;BME280;51761;42.126;24.752;2022-11-11T07:37:11;100749.56;;;20.93;45.38
65175;BME280;51761;42.126;24.752;2022-11-11T07:39:37;100797.31;;;21.56;45.47
65175;BME280;51761;42.126;24.752;2022-11-11T07:42:02;100771.53;;;21.32;45.38
65175;BME280;51761;42.126;24.752;2022-11-11T07:44:28;100758.50;;;20.62;45.86
65175;BME280;51761;42.126;24.752;2022-11-11T07:46:53;100811.91;;;20.54;47.47
65175;BME280;51761;42.126;24.752;2022-11-11T07:49:19;100813.44;;;20.25;48.75
65175;BME280;51761;42.126;24.752;2022-11-11T07:51:44;100815.69;;;20.30;49.25
65175;BME280;51761;42.126;24.752;2022-11-11T07:54:10;100805.41;;;19.64;50.30
65175;BME280;51761;42.126;24.752;2022-11-11T07:56:35;100815.16;;;19.51;51.35
65175;BME280;51761;42.126;24.752;2022-11-11T07:59:01;100783.66;;;18.99;52.89
65175;BME280;51761;42.126;24.752;2022-11-11T08:01:26;100784.75;;;18.64;53.28
65175;BME280;51761;42.126;24.752;2022-11-11T08:03:52;100812.41;;;18.85;55.56
65175;BME280;51761;42.126;24.752;2022-11-11T08:06:18;100811.81;;;18.78;53.85
65175;BME280;51761;42.126;24.752;2022-11-11T08:08:45;100813.50;;;18.63;53.41
65175;BME280;51761;42.126;24.752;2022-11-11T08:11:13;100813.56;;;18.02;55.01
65175;BME280;51761;42.126;24.752;2022-11-11T08:13:39;100790.25;;;17.98;55.12
65175;BME280;51761;42.126;24.752;2022-11-11T08:16:08;100805.06;;;18.18;54.72
65175;BME280;51761;42.126;24.752;2022-11-11T08:18:34;100821.41;;;18.55;55.47
65175;BME280;51761;42.126;24.752;2022-11-11T08:21:01;100813.81;;;18.52;54.04
65175;BME280;51761;42.126;24.752;2022-11-11T08:23:27;100789.25;;;18.49;53.83
65175;BME280;51761;42.126;24.752;2022-11-11T08:26:03;100823.84;;;18.41;54.19
65175;BME280;51761;42.126;24.752;2022-11-11T08:28:30;100822.22;;;18.27;55.82
65175;BME280;51761;42.126;24.752;2022-11-11T08:31:00;100819.97;;;18.35;54.68
65175;BME280;51761;42.126;24.752;2022-11-11T08:33:27;100790.88;;;18.06;54.82
65175;BME280;51761;42.126;24.752;2022-11-11T08:35:54;100824.47;;;18.32;54.98
65175;BME280;51761;42.126;24.752;2022-11-11T08:38:23;100803.31;;;18.08;54.74
65175;BME280;51761;42.126;24.752;2022-11-11T08:40:49;100826.09;;;18.17;55.36
65175;BME280;51761;42.126;24.752;2022-11-11T08:43:15;100823.16;;;17.92;55.57
65175;BME280;51761;42.126;24.752;2022-11-11T08:45:40;100837.81;;;17.87;56.25
65175;BME280;51761;42.126;24.752;2022-11-11T08:48:07;100822.44;;;17.72;56.89
65175;BME280;51761;42.126;24.752;2022-11-11T08:50:37;100827.38;;;17.52;57.88
65175;BME280;51761;42.126;24.752;2022-11-11T08:53:05;100839.41;;;17.72;57.67
65175;BME280;51761;42.126;24.752;2022-11-11T08:55:31;100838.53;;;17.59;58.50
65175;BME280;51761;42.126;24.752;2022-11-11T08:58:01;100840.47;;;17.78;58.28
65175;BME280;51761;42.126;24.752;2022-11-11T09:00:28;100842.84;;;17.64;59.09
65175;BME280;51761;42.126;24.752;2022-11-11T09:02:54;100836.31;;;17.67;58.93
65175;BME280;51761;42.126;24.752;2022-11-11T09:05:19;100846.72;;;17.70;58.70
65175;BME280;51761;42.126;24.752;2022-11-11T09:07:45;100841.69;;;17.77;58.30
65175;BME280;51761;42.126;24.752;2022-11-11T09:10:11;100827.66;;;17.58;57.65
65175;BME280;51761;42.126;24.752;2022-11-11T09:12:37;100843.31;;;17.62;57.52
65175;BME280;51761;42.126;24.752;2022-11-11T09:15:04;100843.81;;;17.57;57.52
65175;BME280;51761;42.126;24.752;2022-11-11T09:17:29;100846.34;;;17.36;57.58
65175;BME280;51761;42.126;24.752;2022-11-11T09:19:55;100838.81;;;17.30;57.58
65175;BME280;51761;42.126;24.752;2022-11-11T09:22:20;100849.81;;;17.44;57.23
65175;BME280;51761;42.126;24.752;2022-11-11T09:24:46;100844.41;;;17.33;57.49
65175;BME280;51761;42.126;24.752;2022-11-11T09:27:11;100845.75;;;17.45;57.26
65175;BME280;51761;42.126;24.752;2022-11-11T09:29:37;100857.16;;;17.57;57.27
65175;BME280;51761;42.126;24.752;2022-11-11T09:32:03;100850.88;;;17.50;57.23
65175;BME280;51761;42.126;24.752;2022-11-11T09:34:28;100859.69;;;17.52;56.99
65175;BME280;51761;42.126;24.752;2022-11-11T09:36:54;100848.22;;;17.43;57.25
65175;BME280;51761;42.126;24.752;2022-11-11T09:39:19;100850.34;;;17.39;57.40
65175;BME280;51761;42.126;24.752;2022-11-11T09:50:13;100839.44;;;17.21;57.71
65175;BME280;51761;42.126;24.752;2022-11-11T09:53:00;100847.03;;;17.24;57.94
65175;BME280;51761;42.126;24.752;2022-11-11T09:55:44;100844.44;;;17.14;58.41
65175;BME280;51761;42.126;24.752;2022-11-11T09:58:17;100843.22;;;17.15;57.85
65175;BME280;51761;42.126;24.752;2022-11-11T10:00:47;100832.97;;;17.05;58.40
65175;BME280;51761;42.126;24.752;2022-11-11T10:03:24;100816.16;;;16.82;58.54
65175;BME280;51761;42.126;24.752;2022-11-11T10:06:09;100839.78;;;16.88;59.54
65175;BME280;51761;42.126;24.752;2022-11-11T10:08:41;100848.31;;;16.84;60.12
65175;BME280;51761;42.126;24.752;2022-11-11T10:11:33;100838.34;;;16.80;60.53
65175;BME280;51761;42.126;24.752;2022-11-11T10:14:03;100833.66;;;16.73;61.26
65175;BME280;51761;42.126;24.752;2022-11-11T10:16:32;100837.66;;;16.76;61.06
65175;BME280;51761;42.126;24.752;2022-11-11T10:21:51;100840.97;;;16.51;62.39
65175;BME280;51761;42.126;24.752;2022-11-11T10:24:27;100828.41;;;16.36;62.38
65175;BME280;51761;42.126;24.752;2022-11-11T10:26:53;100811.16;;;16.31;62.43
65175;BME280;51761;42.126;24.752;2022-11-11T10:29:21;100853.69;;;16.40;62.67
65175;BME280;51761;42.126;24.752;2022-11-11T10:31:59;100843.63;;;16.39;62.96
65175;BME280;51761;42.126;24.752;2022-11-11T10:34:31;100859.69;;;16.42;62.91
65175;BME280;51761;42.126;24.752;2022-11-11T10:36:58;100856.22;;;16.34;62.96
65175;BME280;51761;42.126;24.752;2022-11-11T10:39:52;100848.56;;;16.35;62.88
65175;BME280;51761;42.126;24.752;2022-11-11T10:42:20;100850.50;;;16.38;62.72
65175;BME280;51761;42.126;24.752;2022-11-11T10:44:46;100851.03;;;16.29;62.80
65175;BME280;51761;42.126;24.752;2022-11-11T10:50:15;100825.91;;;16.19;62.78
65175;BME280;51761;42.126;24.752;2022-11-11T10:52:55;100846.41;;;16.19;62.60
65175;BME280;51761;42.126;24.752;2022-11-11T10:55:33;100839.69;;;16.13;63.05
65175;BME280;51761;42.126;24.752;2022-11-11T10:58:20;100845.25;;;16.17;63.04
65175;BME280;51761;42.126;24.752;2022-11-11T11:00:47;100848.50;;;16.15;63.15
65175;BME280;51761;42.126;24.752;2022-11-11T11:03:23;100855.78;;;16.13;63.28
65175;BME280;51761;42.126;24.752;2022-11-11T11:08:42;100844.31;;;16.23;63.34
65175;BME280;51761;42.126;24.752;2022-11-11T11:13:57;100838.66;;;16.04;64.33
65175;BME280;51761;42.126;24.752;2022-11-11T11:16:28;100844.66;;;16.06;64.65
65175;BME280;51761;42.126;24.752;2022-11-11T11:19:22;100843.97;;;15.98;64.93
65175;BME280;51761;42.126;24.752;2022-11-11T11:21:56;100817.25;;;15.64;65.58
65175;BME280;51761;42.126;24.752;2022-11-11T11:24:30;100841.13;;;15.79;65.64
65175;BME280;51761;42.126;24.752;2022-11-11T11:26:58;100803.72;;;15.56;66.14
65175;BME280;51761;42.126;24.752;2022-11-11T11:29:26;100835.56;;;15.76;65.94
65175;BME280;51761;42.126;24.752;2022-11-11T11:31:54;100807.75;;;15.55;65.78
65175;BME280;51761;42.126;24.752;2022-11-11T11:34:20;100797.34;;;15.52;65.63
65175;BME280;51761;42.126;24.752;2022-11-11T11:37:00;100834.78;;;15.72;65.69
65175;BME280;51761;42.126;24.752;2022-11-11T11:39:34;100832.84;;;15.69;65.72
65175;BME280;51761;42.126;24.752;2022-11-11T11:42:00;100797.72;;;15.54;65.46
65175;BME280;51761;42.126;24.752;2022-11-11T11:44:30;100780.56;;;15.45;65.42
65175;BME280;51761;42.126;24.752;2022-11-11T11:56:40;100805.50;;;15.69;64.91
65175;BME280;51761;42.126;24.752;2022-11-11T11:59:18;100808.16;;;15.76;64.69
65175;BME280;51761;42.126;24.752;2022-11-11T12:15:32;100810.75;;;15.67;66.13
65175;BME280;51761;42.126;24.752;2022-11-11T12:18:08;100817.47;;;15.50;68.95
65175;BME280;51761;42.126;24.752;2022-11-11T12:20:44;100799.38;;;15.25;69.90
65175;BME280;51761;42.126;24.752;2022-11-11T12:40:23;100802.22;;;15.21;70.64
65175;BME280;51761;42.126;24.752;2022-11-11T12:43:25;100799.97;;;15.39;69.69
65175;BME280;51761;42.126;24.752;2022-11-11T12:46:25;100799.00;;;15.49;68.94
65175;BME280;51761;42.126;24.752;2022-11-11T13:00:11;100819.31;;;15.83;67.08
65175;BME280;51761;42.126;24.752;2022-11-11T13:05:28;100812.41;;;15.88;66.45
65175;BME280;51761;42.126;24.752;2022-11-11T13:11:20;100812.81;;;15.86;65.37
65175;BME280;51761;42.126;24.752;2022-11-11T13:16:23;100804.00;;;15.84;65.33
65175;BME280;51761;42.126;24.752;2022-11-11T13:18:57;100777.75;;;15.68;65.30
65175;BME280;51761;42.126;24.752;2022-11-11T13:24:22;100817.53;;;15.92;65.80
65175;BME280;51761;42.126;24.752;2022-11-11T13:32:28;100788.09;;;15.74;66.80
65175;BME280;51761;42.126;24.752;2022-11-11T13:34:56;100812.53;;;15.81;67.00
65175;BME280;51761;42.126;24.752;2022-11-11T13:37:30;100813.66;;;15.83;67.97
65175;BME280;51761;42.126;24.752;2022-11-11T13:40:06;100818.44;;;15.86;67.50
65175;BME280;51761;42.126;24.752;2022-11-11T13:42:47;100824.28;;;15.76;67.57
65175;BME280;51761;42.126;24.752;2022-11-11T13:45:25;100818.66;;;15.76;67.74
65175;BME280;51761;42.126;24.752;2022-11-11T13:47:53;100819.06;;;15.74;66.98
65175;BME280;51761;42.126;24.752;2022-11-11T13:50:23;100826.28;;;15.75;67.44
65175;BME280;51761;42.126;24.752;2022-11-11T13:53:06;100825.97;;;15.70;67.74
65175;BME280;51761;42.126;24.752;2022-11-11T13:55:43;100824.28;;;15.76;67.44
65175;BME280;51761;42.126;24.752;2022-11-11T13:58:27;100824.22;;;15.79;66.75
65175;BME280;51761;42.126;24.752;2022-11-11T14:00:59;100829.97;;;15.72;67.20
65175;BME280;51761;42.126;24.752;2022-11-11T14:13:58;100844.66;;;15.07;71.21
65175;BME280;51761;42.126;24.752;2022-11-11T14:19:27;100844.44;;;14.95;72.03
65175;BME280;51761;42.126;24.752;2022-11-11T14:22:31;100843.31;;;14.89;72.14
65175;BME280;51761;42.126;24.752;2022-11-11T14:25:23;100849.69;;;14.93;72.55
65175;BME280;51761;42.126;24.752;2022-11-11T14:27:49;100859.81;;;14.87;73.27
65175;BME280;51761;42.126;24.752;2022-11-11T14:30:36;100854.75;;;14.75;73.49
65175;BME280;51761;42.126;24.752;2022-11-11T14:38:41;100842.16;;;14.53;74.27
65175;BME280;51761;42.126;24.752;2022-11-11T14:57:46;100853.44;;;14.13;77.83
65175;BME280;51761;42.126;24.752;2022-11-11T15:00:27;100859.53;;;14.08;78.23
65175;BME280;51761;42.126;24.752;2022-11-11T15:03:09;100867.13;;;14.11;78.19
65175;BME280;51761;42.126;24.752;2022-11-11T15:05:53;100869.50;;;14.16;78.28
65175;BME280;51761;42.126;24.752;2022-11-11T15:08:25;100863.47;;;14.14;78.37
65175;BME280;51761;42.126;24.752;2022-11-11T15:24:11;100880.38;;;14.10;78.54
65175;BME280;51761;42.126;24.752;2022-11-11T15:29:33;100884.41;;;14.09;78.26
65175;BME280;51761;42.126;24.752;2022-11-11T15:37:51;100890.88;;;14.03;78.11